Lodge Hill, CA

12:19 AM PDT on April 25, 2017 (GMT -0700)
| | Change Station

Elev -9999 ft 0.00 °N, 0.00 °E | Updated 0 second ago

Clear
Clear
°F
Feels Like °F
N
Wind Variable Wind from North
Gusts mph

Today
High -- | Low -- °F
--% Chance of Precip.
Yesterday
High -- | Low -- °F
Precip. -- in
Pressure 30.00 in
Visibility 10.0 miles
Clouds Clear
Dew Point Not available.
Humidity Not available.
Rainfall --
Snow Depth Not available.
6:18 AM 7:45 PM
Waning Crescent, 2% visible
METAR KPRB 250653Z AUTO 32013KT 10SM CLR 12/09 A3001 RMK AO2 SLP159 T01170094 TSNO
Pressure 30.00 in
Visibility 10.0 miles
Clouds Clear
Dew Point Not available.
Humidity Not available.
Rainfall --
Snow Depth Not available.
6:18 AM 7:45 PM
Waning Crescent, 2% visible
METAR KPRB 250653Z AUTO 32013KT 10SM CLR 12/09 A3001 RMK AO2 SLP159 T01170094 TSNO

Get Your Daily Forecast Email!

Thanks for signing up!

Be on the lookout for a verification email in your inbox.

You'll start receiving severe weather alerts in your inbox..

×

10-Day Weather Forecast

Almanac

Astronomy

Apr. 25, 2017 Rise Set
Actual Time
Civil Twilight
Nautical Twilight
Astronomical Twilight
Moon
Length of Visible Light
Length of Day
Tomorrow will be .
, % of the Moon is Illuminated

Today's Extremes

State Highs State Lows

Community

WunderPhotos

WunderBlog® & News

Nearby

Air Quality

  Air Quality AQ Index Pollutant
Not available.

Snow Depth

Station Depth Elevation

Earthquake Activity

City Distance Mag. Time & Date
Minimum magnitude displayed is 2.5.

Coastal Water Temperatures

Place Temperature

Stations

Nearby Weather Stations

Station Location Temp. Windchill Dew Point Humidity Wind Precip. Elev Updated Type
                   

Watches & Warnings

High Surf Advisory
Issued: 9:27 PM PDT Apr. 24, 2017 – National Weather Service

... High surf advisory now in effect until 9 am PDT Tuesday...

* surf... of 8 to 10 feet will persist through mid morning
Tuesday... highest on west and northwest facing beaches... then
surf will slowly decrease.

* Impacts... there is an increased risk of ocean drowning. Rip
currents can pull swimmers and surfers out to sea. Waves can
wash people off beaches and rocks... and capsize small boats
nearshore.

* Locations... highest surf will be on west and northwest facing
beaches.

Precautionary/preparedness actions...

A high surf advisory means that high surf will affect beaches in
the advisory area... producing localized beach erosion and
dangerous swimming conditions. Swim near a lifeguard. If caught
in a rip current, relax and float. Don't swim against the
current. If able, swim in a direction following the shoreline. If
unable to escape, face the shore and call or wave for help.